Latest Weather Observations for Munglinup West

IDW60801

Issued at 11:04 am WST Tuesday 28 February 2017 (issued every 30 minutes, with the page automatically refreshed every 10 minutes)

About weather observations | Map of weather stations | Latest weather observations for WA | Other Formats
Station Details ID: 012044 Name: MUNGLINUP WEST Lat: -33.55 Lon: 120.70 Height: 220.0 m
Data from the previous 72 hours. | See also: Recent months at Munglinup West
Date/Time
WST
Temp
°C
App
Temp
°C
Dew
Point
°C
Rel
Hum
%
Delta-T
°C
Wind Press
QNH
hPa
Press
MSL
hPa
Rain since
9am
mm
Dir  Spd
km/h
Gust
km/h
Spd
kts
Gust
kts
28/11:00am 24.4 25.0 19.5 74 3.2 SE 15 22 8 12 1018.1 1017.2 0.0
28/10:30am 22.4 22.6 18.6 79 2.4 SSE 15 22 8 12 1018.4 1017.5 0.0
28/10:00am 21.0 20.8 18.4 85 1.6 SSE 17 22 9 12 1018.6 1017.7 0.0
28/09:30am 19.9 20.5 17.7 87 1.4 SE 11 17 6 9 1018.7 1017.8 0.0
28/09:00am 19.8 19.3 17.8 88 1.2 ESE 17 24 9 13 1018.6 1017.7 0.0
28/08:30am 18.6 18.3 17.3 92 0.8 SE 15 20 8 11 1018.5 1017.6 0.0
28/08:00am 18.3 17.9 17.1 93 0.7 SE 15 20 8 11 1018.5 1017.6 0.0
28/07:30am 18.0 17.6 17.2 95 0.5 ESE 15 19 8 10 1018.8 1017.9 0.0
28/07:00am 17.6 16.8 17.0 96 0.4 ESE 17 22 9 12 1018.4 1017.5 0.0
28/06:30am 17.3 16.3 16.7 96 0.4 ESE 17 22 9 12 1018.5 1017.6 0.0
28/06:00am 17.1 16.1 16.6 97 0.3 E 17 24 9 13 1018.4 1017.5 0.0
28/05:30am 17.1 16.4 16.5 96 0.4 ESE 15 22 8 12 1018.8 1017.9 0.0
28/05:00am 17.0 14.9 16.2 95 0.5 ESE 22 32 12 17 1018.1 1017.2 0.0
28/04:30am 17.1 15.9 16.1 94 0.6 ESE 17 24 9 13 1018.5 1017.6 0.0
28/04:00am 17.1 15.9 16.1 94 0.6 SE 17 22 9 12 1018.4 1017.5 0.0
28/03:30am 17.0 16.7 16.4 96 0.4 SSE 13 22 7 12 1018.6 1017.7 0.0
28/03:00am 17.0 17.9 16.5 97 0.3 S 7 13 4 7 1018.6 1017.7 0.0
28/02:30am 17.0 17.4 16.4 96 0.4 S 9 13 5 7 1018.4 1017.5 0.0
28/02:00am 17.0 17.1 16.4 96 0.4 SSE 11 17 6 9 1017.7 1016.8 0.0
28/01:30am 17.1 16.4 16.3 95 0.5 SSE 15 22 8 12 1017.9 1017.0 0.0
28/01:00am 17.2 16.5 16.4 95 0.5 SSE 15 20 8 11 1017.5 1016.6 0.0
28/12:30am 16.9 16.5 16.3 96 0.4 SSE 13 20 7 11 1017.6 1016.7 0.0
28/12:00am 17.3 16.3 16.5 95 0.5 SE 17 24 9 13 1018.1 1017.2 0.0
 
Date/Time
WST
Temp
°C
App
Temp
°C
Dew
Point
°C
Rel
Hum
%
Delta-T
°C
Wind Press
QNH
hPa
Press
MSL
hPa
Rain since
9am
mm
Dir  Spd
km/h
Gust
km/h
Spd
kts
Gust
kts
27/11:30pm 17.4 17.9 16.6 95 0.5 ESE 9 13 5 7 1018.6 1017.7 0.0
27/11:00pm 17.2 17.7 16.6 96 0.4 ESE 9 15 5 8 1019.2 1018.3 0.0
27/10:30pm 17.2 17.8 16.7 97 0.3 ESE 9 13 5 7 1019.0 1018.1 0.0
27/10:00pm 16.8 17.6 16.3 97 0.3 E 7 9 4 5 1019.3 1018.4 0.0
27/09:30pm 16.5 16.8 15.9 96 0.4 SSE 9 15 5 8 1018.2 1017.3 0.0
27/09:00pm 16.7 16.9 15.7 94 0.6 SSE 9 13 5 7 1018.5 1017.6 0.0
27/08:30pm 17.2 16.7 15.9 92 0.8 SSE 13 19 7 10 1018.5 1017.6 0.0
27/08:00pm 17.4 16.8 15.7 90 1.0 SE 13 19 7 10 1018.0 1017.1 0.0
27/07:30pm 17.4 15.6 15.6 89 1.1 SSE 19 26 10 14 1017.6 1016.7 0.0
27/07:00pm 17.8 16.2 16.0 89 1.1 SSE 19 24 10 13 1017.3 1016.4 0.0
27/06:30pm 18.0 16.3 15.8 87 1.3 SSE 19 26 10 14 1017.0 1016.1 0.0
27/06:00pm 19.2 18.0 16.1 82 1.9 SSE 17 26 9 14 1016.8 1015.9 0.0
27/05:30pm 20.1 19.0 16.3 79 2.3 SE 17 24 9 13 1016.6 1015.7 0.0
27/05:00pm 21.3 20.3 16.7 75 2.8 SE 17 22 9 12 1016.4 1015.5 0.0
27/04:30pm 21.2 19.8 16.6 75 2.8 SE 19 28 10 15 1016.2 1015.2 0.0
27/04:00pm 22.1 20.5 16.6 71 3.4 SE 20 30 11 16 1016.0 1015.0 0.0
27/03:30pm 23.2 22.4 17.0 68 3.8 SSE 17 28 9 15 1015.9 1014.9 0.0
27/03:00pm 23.7 22.3 17.0 66 4.2 SE 20 28 11 15 1016.0 1015.0 0.0
27/02:30pm 23.5 22.2 16.8 66 4.1 SSE 19 30 10 16 1015.9 1014.9 0.0
27/02:00pm 23.9 23.2 17.4 67 4.1 SE 17 28 9 15 1015.9 1014.9 0.0
27/01:30pm 24.3 24.0 18.2 68 3.9 SSE 17 24 9 13 1016.1 1015.1 0.0
27/01:00pm 23.8 23.5 17.3 67 4.1 SSE 15 26 8 14 1016.4 1015.5 0.0
27/12:30pm 24.1 23.9 17.6 67 4.1 SSE 15 24 8 13 1016.7 1015.8 0.0
27/12:00pm 23.7 22.9 17.2 67 4.0 SE 17 26 9 14 1016.8 1015.9 0.0
27/11:30am 25.1 25.0 17.8 64 4.6 SE 15 26 8 14 1016.9 1016.0 0.0
27/11:00am 23.6 22.8 17.1 67 4.0 SSE 17 26 9 14 1017.2 1016.3 0.0
27/10:30am 22.9 22.4 16.9 69 3.7 SE 15 26 8 14 1017.2 1016.3 0.0
27/10:00am 22.4 21.7 17.3 73 3.2 SSE 17 26 9 14 1017.2 1016.3 0.0
27/09:30am 21.4 20.6 17.2 77 2.6 SSE 17 26 9 14 1017.1 1016.2 0.0
27/09:00am 20.5 19.5 16.5 78 2.4 SSE 17 30 9 16 1017.1 1016.2 0.2
27/08:30am 19.8 19.0 17.2 85 1.6 SSE 17 24 9 13 1017.2 1016.3 0.2
27/08:00am 18.3 18.1 17.5 95 0.5 S 15 20 8 11 1017.0 1016.1 0.2
27/07:30am 17.2 18.0 17.2 100 0.0 S 9 13 5 7 1016.9 1016.0 0.2
27/07:00am 16.9 17.9 16.9 100 0.0 SSW 7 13 4 7 1016.9 1016.0 0.2
27/06:30am 16.6 17.1 16.6 100 0.0 S 9 13 5 7 1016.3 1015.4 0.2
27/06:00am 16.3 16.3 16.3 100 0.0 SSW 11 17 6 9 1015.4 1014.4 0.2
27/05:30am 16.3 16.3 16.3 100 0.0 S 11 17 6 9 1015.3 1014.3 0.2
27/05:00am 16.5 17.9 16.5 100 0.0 WSW 4 6 2 3 1016.0 1015.0 0.2
27/04:30am 16.5 17.9 16.5 100 0.0 SSW 4 6 2 3 1015.7 1014.7 0.0
27/04:00am 16.4 17.4 16.4 100 0.0 S 6 11 3 6 1015.1 1014.1 0.0
27/03:30am 16.4 17.1 16.2 99 0.1 S 7 11 4 6 1015.0 1014.0 0.0
27/03:00am 16.4 17.1 16.2 99 0.1 S 7 9 4 5 1014.7 1013.8 0.0
27/02:30am 16.5 16.5 16.2 98 0.2 S 11 15 6 8 1014.6 1013.7 0.0
27/02:00am 16.7 17.2 16.5 99 0.1 S 9 13 5 7 1015.0 1014.0 0.0
27/01:30am 16.6 16.6 16.3 98 0.2 S 11 19 6 10 1014.6 1013.7 0.0
27/01:00am 16.6 17.4 16.3 98 0.2 SSE 7 17 4 9 1014.8 1013.9 0.0
27/12:30am 16.7 15.5 16.2 97 0.3 S 17 22 9 12 1014.3 1013.4 0.0
27/12:00am 16.8 15.3 16.2 96 0.4 SSW 19 24 10 13 1014.4 1013.5 0.0
 
Date/Time
WST
Temp
°C
App
Temp
°C
Dew
Point
°C
Rel
Hum
%
Delta-T
°C
Wind Press
QNH
hPa
Press
MSL
hPa
Rain since
9am
mm
Dir  Spd
km/h
Gust
km/h
Spd
kts
Gust
kts
26/11:30pm 16.9 15.8 16.3 96 0.4 SSW 17 22 9 12 1014.8 1013.9 0.0
26/11:00pm 17.1 16.1 16.5 96 0.4 SSW 17 24 9 13 1015.2 1014.2 0.0
26/10:30pm 17.3 16.5 17.0 98 0.2 SSW 17 24 9 13 1015.4 1014.4 0.0
26/10:00pm 17.5 16.4 17.2 98 0.2 SSW 19 28 10 15 1015.4 1014.4 0.0
26/09:30pm 17.6 16.5 17.3 98 0.2 SW 19 26 10 14 1016.0 1015.0 0.0
26/09:00pm 17.8 17.6 17.5 98 0.2 SSW 15 20 8 11 1016.5 1015.6 0.0
26/08:30pm 17.8 17.1 17.3 97 0.3 SW 17 22 9 12 1016.4 1015.5 0.0
26/08:00pm 17.8 16.7 17.3 97 0.3 SW 19 24 10 13 1015.3 1014.3 0.0
26/07:30pm 17.9 16.7 17.4 97 0.3 SSW 20 26 11 14 1014.3 1013.4 0.0
26/07:00pm 18.1 17.1 17.6 97 0.3 SW 19 24 10 13 1014.6 1013.7 0.0
26/06:30pm 18.4 16.9 17.6 95 0.5 SSW 22 28 12 15 1012.9 1012.0 0.0
26/06:00pm 19.6 18.8 18.1 91 0.9 SSW 19 26 10 14 1013.2 1012.3 0.0
26/05:38pm 20.2 19.4 18.5 90 1.1 SW 20 28 11 15 1014.5 1013.6 0.0
26/05:30pm 20.4 19.0 18.7 90 1.1 SSW 24 28 13 15 1012.2 1011.2 0.0
26/05:00pm 20.5 19.3 18.4 88 1.3 SSW 22 30 12 16 1012.1 1011.1 0.0
26/04:30pm 20.5 19.9 18.4 88 1.3 SSW 19 24 10 13 1012.1 1011.1 0.0
26/04:00pm 21.4 20.2 18.4 83 1.9 S 22 32 12 17 1011.8 1010.8 0.0
26/03:30pm 23.2 21.8 18.7 76 2.9 SSW 24 30 13 16 1011.4 1010.4 0.0
26/03:00pm 26.5 26.4 19.9 67 4.3 S 20 30 11 16 1011.0 1010.0 0.0
26/02:30pm 27.1 27.3 19.4 62 5.0 SSE 17 24 9 13 1010.8 1009.8 0.0
26/02:00pm 29.2 29.9 20.4 59 5.9 SSE 17 24 9 13 1010.8 1009.8 0.0
26/01:30pm 28.6 29.4 19.8 59 5.8 S 15 26 8 14 1011.3 1010.3 0.0
26/01:00pm 29.6 29.7 19.9 56 6.4 S 19 26 10 14 1011.3 1010.3 0.0
26/12:30pm 31.0 31.6 20.3 53 7.1 SSE 17 22 9 12 1011.5 1010.5 0.0
26/12:00pm 30.5 30.8 19.5 51 7.3 S 17 24 9 13 1011.9 1010.9 0.0
26/11:30am 32.0 31.6 17.1 41 9.5 S 15 19 8 10 1012.2 1011.2 0.0
26/11:00am 32.6 31.9 13.3 31 11.7 SW 9 15 5 8 1012.5 1011.6 0.0
26/10:30am 31.4 30.6 11.7 29 11.6 SW 7 15 4 8 1012.9 1012.0 0.0
26/10:00am 31.4 29.9 10.7 28 12.0 NNW 9 15 5 8 1013.0 1012.1 0.0
26/09:30am 30.2 27.8 10.2 29 11.5 N 13 19 7 10 1013.2 1012.3 0.0
26/09:00am 28.9 26.6 10.6 32 10.5 NNW 13 20 7 11 1013.3 1012.4 0.0
26/08:30am 27.1 23.9 9.9 34 9.7 N 17 24 9 13 1013.2 1012.3 0.0
26/08:00am 25.3 22.1 10.0 38 8.5 N 17 24 9 13 1013.3 1012.4 0.0
26/07:30am 23.8 20.5 9.4 40 7.9 N 17 26 9 14 1013.2 1012.3 0.0
26/07:00am 21.9 18.2 9.4 45 6.8 NNE 19 28 10 15 1013.2 1012.3 0.0
26/06:30am 20.1 16.2 9.4 50 5.7 NNE 20 28 11 15 1013.0 1012.1 0.0
26/06:00am 18.7 14.7 9.2 54 5.0 NNE 20 26 11 14 1012.8 1011.9 0.0
26/05:30am 18.5 14.7 9.0 54 5.0 NNE 19 24 10 13 1012.6 1011.7 0.0
26/05:00am 18.6 14.7 8.8 53 5.2 NNE 19 24 10 13 1012.3 1011.4 0.0
26/04:30am 18.7 14.8 8.7 52 5.3 NNE 19 22 10 12 1012.2 1011.2 0.0
26/04:00am 18.9 15.0 8.6 51 5.4 NE 19 22 10 12 1012.1 1011.1 0.0
26/03:30am 18.7 15.2 8.7 52 5.3 NNE 17 22 9 12 1012.3 1011.4 0.0
26/03:00am 19.4 15.2 8.4 49 5.8 NE 20 24 11 13 1012.4 1011.5 0.0
26/02:30am 19.6 15.8 8.9 50 5.7 NE 19 22 10 12 1012.3 1011.4 0.0
26/02:00am 20.7 17.1 8.4 45 6.5 NNE 17 22 9 12 1012.6 1011.7 0.0
26/01:30am 20.4 17.0 9.0 48 6.1 NNE 17 20 9 11 1012.8 1011.9 0.0
26/01:00am 20.6 17.4 9.8 50 5.9 NNE 17 20 9 11 1013.1 1012.2 0.0
26/12:30am 20.7 17.6 10.2 51 5.7 NE 17 19 9 10 1013.3 1012.4 0.0
26/12:00am 21.2 18.0 9.8 48 6.2 NE 17 20 9 11 1013.5 1012.6 0.0
 
Date/Time
WST
Temp
°C
App
Temp
°C
Dew
Point
°C
Rel
Hum
%
Delta-T
°C
Wind Press
QNH
hPa
Press
MSL
hPa
Rain since
9am
mm
Dir  Spd
km/h
Gust
km/h
Spd
kts
Gust
kts
25/11:30pm 21.6 18.2 9.2 45 6.7 NE 17 19 9 10 1013.6 1012.7 0.0
25/11:00pm 22.5 19.1 9.0 42 7.3 NE 17 20 9 11 1013.8 1012.9 0.0
25/10:30pm 22.4 19.5 9.6 44 7.0 NE 15 17 8 9 1014.2 1013.3 0.0
25/10:00pm 22.3 19.6 10.5 47 6.5 NE 15 17 8 9 1014.5 1013.6 0.0
25/09:30pm 22.2 19.5 10.4 47 6.5 NE 15 17 8 9 1014.6 1013.7 0.0
25/09:00pm 23.7 20.8 9.7 41 7.7 NE 15 19 8 10 1014.7 1013.8 0.0
25/08:30pm 24.6 21.7 9.7 39 8.2 NE 15 19 8 10 1014.8 1013.9 0.0
25/08:00pm 24.9 22.1 10.0 39 8.3 NE 15 17 8 9 1014.8 1013.9 0.0
25/07:30pm 25.5 23.1 10.1 38 8.6 NE 13 15 7 8 1014.6 1013.7 0.0
25/07:00pm 25.8 24.0 10.8 39 8.5 NE 11 13 6 7 1014.5 1013.6 0.0
25/06:30pm 27.4 26.5 11.4 37 9.2 NNE 7 11 4 6 1014.4 1013.5 0.0
25/06:00pm 30.2 29.3 10.7 30 11.3 N 6 9 3 5 1014.4 1013.5 0.0
25/05:30pm 31.4 28.9 8.4 24 12.9 N 11 19 6 10 1014.5 1013.6 0.0
25/05:00pm 32.1 28.9 7.0 21 13.8 N 13 20 7 11 1014.6 1013.7 0.0
25/04:30pm 32.4 29.6 8.6 23 13.4 NE 13 20 7 11 1014.8 1013.9 0.0
25/04:00pm 32.7 30.7 10.1 25 13.1 NE 11 20 6 11 1015.0 1014.0 0.0
25/03:30pm 32.6 30.2 10.0 25 13.0 NE 13 24 7 13 1015.4 1014.4 0.0
25/03:00pm 32.3 30.1 9.2 24 13.1 NE 11 20 6 11 1015.8 1014.8 0.0
25/02:30pm 32.3 29.7 9.2 24 13.2 NNE 13 24 7 13 1016.2 1015.2 0.0
25/02:00pm 32.1 29.4 9.0 24 13.1 NNE 13 20 7 11 1016.7 1015.8 0.0
25/01:30pm 31.6 29.2 8.6 24 12.9 NE 11 20 6 11 1017.2 1016.3 0.0
25/01:00pm 31.3 28.6 8.9 25 12.6 ENE 13 22 7 12 1017.7 1016.8 0.0
25/12:30pm 31.5 29.4 9.7 26 12.5 NE 11 20 6 11 1018.3 1017.4 0.0
25/12:00pm 30.8 28.4 10.2 28 11.8 NE 13 24 7 13 1018.8 1017.9 0.0
25/11:30am 30.4 27.5 10.9 30 11.3 NNE 17 26 9 14 1019.2 1018.3 0.0

Other Formats:

Comma delimited format used in spreadsheet applications
http://www.bom.gov.au/fwo/IDW60801/IDW60801.95644.axf

JavaScript Object Notation format (JSON) in row-major order
http://www.bom.gov.au/fwo/IDW60801/IDW60801.95644.json